createdAt,value
2018-07-26T00:00:11.151Z,23.40
2018-07-26T00:00:42.868Z,23.40
2018-07-26T00:01:14.623Z,23.30
2018-07-26T00:01:46.338Z,23.40
2018-07-26T00:02:18.083Z,23.30
2018-07-26T00:02:49.830Z,23.30
2018-07-26T00:03:21.562Z,23.30
2018-07-26T00:03:53.293Z,23.20
2018-07-26T00:04:25.017Z,23.10
2018-07-26T00:04:56.742Z,23.00
2018-07-26T00:05:28.518Z,22.90
2018-07-26T00:06:00.608Z,22.80
2018-07-26T00:06:32.328Z,22.80
2018-07-26T00:07:04.057Z,22.80
2018-07-26T00:07:35.990Z,22.80
2018-07-26T00:08:07.709Z,22.80
2018-07-26T00:08:39.433Z,22.90
2018-07-26T00:09:11.160Z,23.00
2018-07-26T00:09:42.886Z,23.00
2018-07-26T00:10:14.642Z,23.20
2018-07-26T00:10:46.383Z,23.20
2018-07-26T00:11:18.110Z,23.30
2018-07-26T00:11:49.834Z,23.30
2018-07-26T00:12:21.557Z,23.40
2018-07-26T00:12:53.291Z,23.30
2018-07-26T00:13:57.059Z,23.20
2018-07-26T00:14:28.782Z,23.10
2018-07-26T00:15:00.505Z,23.10
2018-07-26T00:15:32.233Z,23.00
2018-07-26T00:16:03.970Z,22.90
2018-07-26T00:16:35.716Z,22.90
2018-07-26T00:17:07.450Z,22.80
2018-07-26T00:17:39.185Z,22.80
2018-07-26T00:18:10.986Z,22.80
2018-07-26T00:18:42.680Z,22.80
2018-07-26T00:19:14.413Z,22.80
2018-07-26T00:19:46.146Z,22.80
2018-07-26T00:20:17.887Z,22.90
2018-07-26T00:20:49.630Z,23.00
2018-07-26T00:21:21.352Z,23.00
2018-07-26T00:21:53.160Z,23.00
2018-07-26T00:22:24.998Z,23.10
2018-07-26T00:22:56.914Z,23.10
2018-07-26T00:23:28.637Z,23.10
2018-07-26T00:24:00.406Z,23.10
2018-07-26T00:24:32.130Z,23.10
2018-07-26T00:25:03.853Z,23.10
2018-07-26T00:25:35.578Z,23.10
2018-07-26T00:26:07.316Z,23.20
2018-07-26T00:26:39.040Z,23.20
2018-07-26T00:27:10.811Z,23.30
2018-07-26T00:28:14.770Z,23.40
2018-07-26T00:28:46.519Z,23.40
2018-07-26T00:29:18.248Z,23.50
2018-07-26T00:29:49.965Z,23.50
2018-07-26T00:30:21.689Z,23.50
2018-07-26T00:30:53.417Z,23.50
2018-07-26T00:31:25.172Z,23.50
2018-07-26T00:31:56.911Z,23.50
2018-07-26T00:32:28.648Z,23.50
2018-07-26T00:33:32.417Z,23.50
2018-07-26T00:34:04.150Z,23.50
2018-07-26T00:34:35.882Z,23.50
2018-07-26T00:35:07.626Z,23.50
2018-07-26T00:35:39.342Z,23.60
2018-07-26T00:36:11.077Z,23.60
2018-07-26T00:36:42.815Z,23.60
2018-07-26T00:37:14.556Z,23.60
2018-07-26T00:37:46.298Z,23.70
2018-07-26T00:38:18.036Z,23.70
2018-07-26T00:38:49.801Z,23.70
2018-07-26T00:39:21.519Z,23.70
2018-07-26T00:39:53.240Z,23.60
2018-07-26T00:40:25.029Z,23.60
2018-07-26T00:40:56.770Z,23.60
2018-07-26T00:41:28.533Z,23.50
2018-07-26T00:42:00.321Z,23.50
2018-07-26T00:42:32.044Z,23.50
2018-07-26T00:43:03.861Z,23.50
2018-07-26T00:43:35.579Z,23.50
2018-07-26T00:44:07.303Z,23.50
2018-07-26T00:44:39.026Z,23.60
2018-07-26T00:45:10.993Z,23.50
2018-07-26T00:45:42.712Z,23.50
2018-07-26T00:46:14.441Z,23.50
2018-07-26T00:46:46.158Z,23.50
2018-07-26T00:47:17.893Z,23.50
2018-07-26T00:47:49.614Z,23.40
2018-07-26T00:48:21.338Z,23.50
2018-07-26T00:48:53.122Z,23.50
2018-07-26T00:49:25.053Z,23.50
2018-07-26T00:49:56.804Z,23.60
2018-07-26T00:50:28.563Z,23.60
2018-07-26T00:51:00.316Z,23.60
2018-07-26T00:51:32.043Z,23.60
2018-07-26T00:52:03.827Z,23.60
2018-07-26T00:53:07.763Z,23.60
2018-07-26T00:53:39.529Z,23.60
2018-07-26T00:54:11.278Z,23.70
2018-07-26T00:54:43.035Z,23.70
2018-07-26T00:55:15.100Z,23.60
2018-07-26T00:55:46.887Z,23.60
2018-07-26T00:56:18.665Z,23.60
2018-07-26T00:56:50.393Z,23.60
2018-07-26T00:57:22.151Z,23.60
2018-07-26T00:57:54.179Z,23.70
2018-07-26T00:58:26.110Z,23.70
2018-07-26T00:58:57.849Z,23.70
2018-07-26T00:59:29.688Z,23.70
2018-07-26T01:00:01.481Z,23.70
2018-07-26T01:00:33.621Z,23.70
2018-07-26T01:01:05.400Z,23.70
2018-07-26T01:01:37.143Z,23.70
2018-07-26T01:02:08.865Z,23.70
2018-07-26T01:02:40.673Z,23.70
2018-07-26T01:03:12.411Z,23.70
2018-07-26T01:03:44.140Z,23.70
2018-07-26T01:04:15.939Z,23.70
2018-07-26T01:05:19.720Z,23.70
2018-07-26T01:05:51.501Z,23.70
2018-07-26T01:06:23.250Z,23.70
2018-07-26T01:06:55.031Z,23.70
2018-07-26T01:07:26.771Z,23.60
2018-07-26T01:07:58.556Z,23.70
2018-07-26T01:08:30.259Z,23.60
2018-07-26T01:09:02.008Z,23.70
2018-07-26T01:09:33.801Z,23.60
2018-07-26T01:10:05.705Z,23.60
2018-07-26T01:10:37.430Z,23.60
2018-07-26T01:11:09.157Z,23.60
2018-07-26T01:11:40.922Z,23.60
2018-07-26T01:12:13.177Z,23.60
2018-07-26T01:12:45.081Z,23.60
2018-07-26T01:13:16.882Z,23.60
2018-07-26T01:13:48.620Z,23.60
2018-07-26T01:14:20.411Z,23.60
2018-07-26T01:14:52.166Z,23.60
2018-07-26T01:15:24.031Z,23.60
2018-07-26T01:15:55.796Z,23.60
2018-07-26T01:16:27.564Z,23.60
2018-07-26T01:16:59.355Z,23.50
2018-07-26T01:17:31.079Z,23.50
2018-07-26T01:18:02.931Z,23.50
2018-07-26T01:18:34.685Z,23.50
2018-07-26T01:19:06.441Z,23.50
2018-07-26T01:19:38.178Z,23.50
2018-07-26T01:20:09.946Z,23.50
2018-07-26T01:20:41.700Z,23.50
2018-07-26T01:21:13.449Z,23.50
2018-07-26T01:21:45.232Z,23.50
2018-07-26T01:22:16.966Z,23.50
2018-07-26T01:22:48.689Z,23.50
2018-07-26T01:23:20.600Z,23.40
2018-07-26T01:23:52.303Z,23.40
2018-07-26T01:24:24.043Z,23.40
2018-07-26T01:24:55.782Z,23.40
2018-07-26T01:25:27.547Z,23.40
2018-07-26T01:25:59.361Z,23.40
2018-07-26T01:26:31.105Z,23.40
2018-07-26T01:27:02.874Z,23.40
2018-07-26T01:27:34.586Z,23.40
2018-07-26T01:28:06.392Z,23.40
2018-07-26T01:28:38.134Z,23.40
2018-07-26T01:29:09.882Z,23.40
2018-07-26T01:29:41.686Z,23.30
2018-07-26T01:30:13.406Z,23.30
2018-07-26T01:30:45.296Z,23.30
2018-07-26T01:31:17.049Z,23.30
2018-07-26T01:31:48.865Z,23.30
2018-07-26T01:32:20.856Z,23.30
2018-07-26T01:32:52.621Z,23.30
2018-07-26T01:33:24.388Z,23.30
2018-07-26T01:33:56.175Z,23.30
2018-07-26T01:34:27.913Z,23.30
2018-07-26T01:34:59.676Z,23.30
2018-07-26T01:35:31.427Z,23.30
2018-07-26T01:36:03.474Z,23.30
2018-07-26T01:36:35.517Z,23.30
2018-07-26T01:37:07.598Z,23.30
2018-07-26T01:37:39.556Z,23.20
2018-07-26T01:38:11.295Z,23.30
2018-07-26T01:38:43.022Z,23.30
2018-07-26T01:39:15.389Z,23.20
2018-07-26T01:39:47.532Z,23.30
2018-07-26T01:40:19.884Z,23.30
2018-07-26T01:40:51.689Z,23.30
2018-07-26T01:41:23.744Z,23.40
2018-07-26T01:41:55.518Z,23.40
2018-07-26T01:42:27.271Z,23.40
2018-07-26T01:42:59.022Z,23.40
2018-07-26T01:43:30.747Z,23.40
2018-07-26T01:44:02.502Z,23.50
2018-07-26T01:44:34.244Z,23.50
2018-07-26T01:45:05.986Z,23.50
2018-07-26T01:45:37.704Z,23.50
2018-07-26T01:46:09.428Z,23.50
2018-07-26T01:46:41.149Z,23.50
2018-07-26T01:47:12.889Z,23.50
2018-07-26T01:47:44.631Z,23.50
2018-07-26T01:48:16.561Z,23.50
2018-07-26T01:48:48.294Z,23.50
2018-07-26T01:49:20.030Z,23.50
2018-07-26T01:49:51.760Z,23.50
2018-07-26T01:50:23.481Z,23.50
2018-07-26T01:50:55.201Z,23.50
2018-07-26T01:51:26.934Z,23.50
2018-07-26T01:51:58.663Z,23.50
2018-07-26T01:52:30.396Z,23.50
2018-07-26T01:53:02.147Z,23.50
2018-07-26T01:53:33.915Z,23.50
2018-07-26T01:54:05.666Z,23.50
2018-07-26T01:54:37.413Z,23.50
2018-07-26T01:55:09.137Z,23.50
2018-07-26T01:55:40.848Z,23.50
2018-07-26T01:56:12.579Z,23.50
2018-07-26T01:56:44.314Z,23.50
2018-07-26T01:57:16.035Z,23.50
2018-07-26T01:57:47.765Z,23.50
2018-07-26T01:58:19.570Z,23.50
2018-07-26T01:58:51.306Z,23.50
2018-07-26T01:59:23.021Z,23.40
2018-07-26T01:59:54.740Z,23.40
2018-07-26T02:00:26.481Z,23.40
2018-07-26T02:00:58.207Z,23.40
2018-07-26T02:01:29.944Z,23.40
2018-07-26T02:02:01.660Z,23.40
2018-07-26T02:02:33.391Z,23.30
2018-07-26T02:03:05.123Z,23.30
2018-07-26T02:03:36.934Z,23.30
2018-07-26T02:04:08.663Z,23.30
2018-07-26T02:04:40.384Z,23.30
2018-07-26T02:05:12.119Z,23.30
2018-07-26T02:05:43.860Z,23.30
2018-07-26T02:06:15.618Z,23.30
2018-07-26T02:06:47.348Z,23.30
2018-07-26T02:07:19.061Z,23.40
2018-07-26T02:07:50.822Z,23.40
2018-07-26T02:08:22.541Z,23.40
2018-07-26T02:08:54.276Z,23.40
2018-07-26T02:09:26.040Z,23.40
2018-07-26T02:09:57.765Z,23.40
2018-07-26T02:10:29.509Z,23.50
2018-07-26T02:11:01.255Z,23.50
2018-07-26T02:11:32.981Z,23.50
2018-07-26T02:12:04.710Z,23.50
2018-07-26T02:12:36.460Z,23.50
2018-07-26T02:13:08.198Z,23.50
2018-07-26T02:13:39.922Z,23.50
2018-07-26T02:14:11.637Z,23.40
2018-07-26T02:14:43.390Z,23.50
2018-07-26T02:15:15.120Z,23.50
2018-07-26T02:15:46.847Z,23.40
2018-07-26T02:16:18.601Z,23.40
2018-07-26T02:16:50.329Z,23.30
2018-07-26T02:17:22.066Z,23.30
2018-07-26T02:17:53.792Z,23.30
2018-07-26T02:18:25.520Z,23.30
2018-07-26T02:18:57.258Z,23.30
2018-07-26T02:19:29.083Z,23.30
2018-07-26T02:20:00.803Z,23.30
2018-07-26T02:20:32.534Z,23.40
2018-07-26T02:21:04.289Z,23.40
2018-07-26T02:21:36.010Z,23.30
2018-07-26T02:22:07.735Z,23.30
2018-07-26T02:22:39.460Z,23.30
2018-07-26T02:23:11.189Z,23.40
2018-07-26T02:23:42.912Z,23.30
2018-07-26T02:24:14.641Z,23.40
2018-07-26T02:24:46.409Z,23.40
2018-07-26T02:25:18.149Z,23.40
2018-07-26T02:25:49.889Z,23.40
2018-07-26T02:26:21.614Z,23.40
2018-07-26T02:26:53.338Z,23.40
2018-07-26T02:27:25.058Z,23.40
2018-07-26T02:27:56.778Z,23.40
2018-07-26T02:28:28.509Z,23.40
2018-07-26T02:29:00.241Z,23.40
2018-07-26T02:29:31.948Z,23.40
2018-07-26T02:30:03.704Z,23.40
2018-07-26T02:30:35.422Z,23.40
2018-07-26T02:31:07.326Z,23.40
2018-07-26T02:31:39.154Z,23.40
2018-07-26T02:32:10.872Z,23.40
2018-07-26T02:32:42.617Z,23.40
2018-07-26T02:33:14.342Z,23.40
2018-07-26T02:33:46.263Z,23.30
2018-07-26T02:34:17.993Z,23.30
2018-07-26T02:34:49.773Z,23.30
2018-07-26T02:35:21.687Z,23.30
2018-07-26T02:35:53.405Z,23.20
2018-07-26T02:36:25.134Z,23.20
2018-07-26T02:36:56.893Z,23.20
2018-07-26T02:37:28.842Z,23.20
2018-07-26T02:38:00.746Z,23.20
2018-07-26T02:38:32.482Z,23.20
2018-07-26T02:39:04.213Z,23.20
2018-07-26T02:39:35.925Z,23.20
2018-07-26T02:40:07.858Z,23.20
2018-07-26T02:40:39.574Z,23.20
2018-07-26T02:41:11.313Z,23.30
2018-07-26T02:41:43.064Z,23.30
2018-07-26T02:42:14.798Z,23.30
2018-07-26T02:42:46.525Z,23.30
2018-07-26T02:43:18.248Z,23.30
2018-07-26T02:43:49.996Z,23.40
2018-07-26T02:44:21.788Z,23.40
2018-07-26T02:44:53.518Z,23.40
2018-07-26T02:45:25.241Z,23.50
2018-07-26T02:45:56.962Z,23.40
2018-07-26T02:46:28.698Z,23.40
2018-07-26T02:47:00.417Z,23.40
2018-07-26T02:47:32.153Z,23.40
2018-07-26T02:48:03.873Z,23.50
2018-07-26T02:48:35.618Z,23.40
2018-07-26T02:49:07.346Z,23.40
2018-07-26T02:49:39.085Z,23.40
2018-07-26T02:50:11.010Z,23.40
2018-07-26T02:50:42.960Z,23.40
2018-07-26T02:51:14.685Z,23.30
2018-07-26T02:51:46.546Z,23.30
2018-07-26T02:52:18.285Z,23.30
2018-07-26T02:52:50.121Z,23.30
2018-07-26T02:53:21.838Z,23.30
2018-07-26T02:53:53.567Z,23.30
2018-07-26T02:54:25.301Z,23.30
2018-07-26T02:54:57.224Z,23.30
2018-07-26T02:55:28.947Z,23.30
2018-07-26T02:56:00.682Z,23.40
2018-07-26T02:56:32.471Z,23.30
2018-07-26T02:57:04.194Z,23.30
2018-07-26T02:57:35.910Z,23.30
2018-07-26T02:58:39.632Z,23.30
2018-07-26T02:59:11.354Z,23.30
2018-07-26T02:59:43.088Z,23.30
2018-07-26T03:00:14.806Z,23.30
2018-07-26T03:00:46.529Z,23.30
2018-07-26T03:01:18.260Z,23.30
2018-07-26T03:01:49.980Z,23.30
2018-07-26T03:02:21.721Z,23.30
2018-07-26T03:02:53.470Z,23.30
2018-07-26T03:03:25.190Z,23.30
2018-07-26T03:03:56.929Z,23.30
2018-07-26T03:04:28.658Z,23.30
2018-07-26T03:05:00.382Z,23.20
2018-07-26T03:05:32.125Z,23.20
2018-07-26T03:06:03.854Z,23.10
2018-07-26T03:06:35.594Z,23.10
2018-07-26T03:07:07.406Z,23.10
2018-07-26T03:07:39.287Z,23.10
2018-07-26T03:08:10.999Z,23.10
2018-07-26T03:08:42.738Z,23.20
2018-07-26T03:09:46.513Z,23.20
2018-07-26T03:10:18.234Z,23.20
2018-07-26T03:10:49.964Z,23.30
2018-07-26T03:11:21.696Z,23.30
2018-07-26T03:11:53.422Z,23.30
2018-07-26T03:12:25.145Z,23.30
2018-07-26T03:12:56.878Z,23.30
2018-07-26T03:13:28.816Z,23.30
2018-07-26T03:14:00.746Z,23.30
2018-07-26T03:14:32.480Z,23.30
2018-07-26T03:15:04.209Z,23.30
2018-07-26T03:15:35.929Z,23.30
2018-07-26T03:16:07.678Z,23.30
2018-07-26T03:16:39.409Z,23.30
2018-07-26T03:17:11.135Z,23.30
2018-07-26T03:17:43.082Z,23.30
2018-07-26T03:18:14.818Z,23.30
2018-07-26T03:18:46.571Z,23.30
2018-07-26T03:19:18.299Z,23.30
2018-07-26T03:19:50.236Z,23.30
2018-07-26T03:20:22.174Z,23.30
2018-07-26T03:20:53.893Z,23.30
2018-07-26T03:21:57.865Z,23.40
2018-07-26T03:22:29.597Z,23.30
2018-07-26T03:23:01.325Z,23.30
2018-07-26T03:23:33.257Z,23.40
2018-07-26T03:24:05.021Z,23.40
2018-07-26T03:24:36.926Z,23.40
2018-07-26T03:25:08.738Z,23.40
2018-07-26T03:25:40.462Z,23.40
2018-07-26T03:26:12.198Z,23.40
2018-07-26T03:26:43.922Z,23.40
2018-07-26T03:27:15.638Z,23.30
2018-07-26T03:27:47.361Z,23.30
2018-07-26T03:28:19.094Z,23.20
2018-07-26T03:28:50.809Z,23.20
2018-07-26T03:29:22.548Z,23.20
2018-07-26T03:29:54.267Z,23.20
2018-07-26T03:30:25.993Z,23.20
2018-07-26T03:30:57.734Z,23.10
2018-07-26T03:31:29.448Z,23.20
2018-07-26T03:32:01.192Z,23.10
2018-07-26T03:32:32.921Z,23.20
2018-07-26T03:33:04.664Z,23.20
2018-07-26T03:33:36.367Z,23.20
2018-07-26T03:34:08.105Z,23.20
2018-07-26T03:34:40.023Z,23.20
2018-07-26T03:35:11.745Z,23.30
2018-07-26T03:35:43.474Z,23.30
2018-07-26T03:36:15.194Z,23.30
2018-07-26T03:36:46.922Z,23.30
2018-07-26T03:37:18.643Z,23.20
2018-07-26T03:37:50.369Z,23.20
2018-07-26T03:38:22.100Z,23.20
2018-07-26T03:38:53.829Z,23.20
2018-07-26T03:39:25.593Z,23.20
2018-07-26T03:39:57.300Z,23.10
2018-07-26T03:40:29.039Z,23.20
2018-07-26T03:41:00.777Z,23.20
2018-07-26T03:41:32.504Z,23.20
2018-07-26T03:42:04.479Z,23.20
2018-07-26T03:42:36.221Z,23.20
2018-07-26T03:43:07.957Z,23.20
2018-07-26T03:43:39.738Z,23.30
2018-07-26T03:44:11.802Z,23.30
2018-07-26T03:44:43.508Z,23.30
2018-07-26T03:45:15.239Z,23.30
2018-07-26T03:45:47.016Z,23.30
2018-07-26T03:46:18.761Z,23.30
2018-07-26T03:47:22.467Z,23.20
2018-07-26T03:47:54.198Z,23.30
2018-07-26T03:48:25.918Z,23.30
2018-07-26T03:48:57.655Z,23.20
2018-07-26T03:49:29.414Z,23.20
2018-07-26T03:50:01.232Z,23.30
2018-07-26T03:50:32.967Z,23.30
2018-07-26T03:51:04.705Z,23.30
2018-07-26T03:51:36.623Z,23.20
2018-07-26T03:52:08.379Z,23.30
2018-07-26T03:52:40.141Z,23.20
2018-07-26T03:53:12.057Z,23.20
2018-07-26T03:53:43.770Z,23.20
2018-07-26T03:54:15.494Z,23.20
2018-07-26T03:54:47.230Z,23.20
2018-07-26T03:55:18.944Z,23.20
2018-07-26T03:55:50.689Z,23.20
2018-07-26T03:56:22.605Z,23.20
2018-07-26T03:56:54.364Z,23.20
2018-07-26T03:57:26.085Z,23.20
2018-07-26T03:57:57.830Z,23.20
2018-07-26T03:58:29.560Z,23.20
2018-07-26T03:59:01.283Z,23.20
2018-07-26T03:59:33.014Z,23.20
2018-07-26T04:00:04.753Z,23.20
2018-07-26T04:00:36.505Z,23.20
2018-07-26T04:01:08.230Z,23.30
2018-07-26T04:01:39.955Z,23.30
2018-07-26T04:02:11.704Z,23.30
2018-07-26T04:02:43.426Z,23.30
2018-07-26T04:03:47.346Z,23.30
2018-07-26T04:04:19.074Z,23.30
2018-07-26T04:04:50.793Z,23.30
2018-07-26T04:05:22.541Z,23.30
2018-07-26T04:05:54.273Z,23.40
2018-07-26T04:06:26.014Z,23.30
2018-07-26T04:06:57.738Z,23.30
2018-07-26T04:07:29.469Z,23.40
2018-07-26T04:08:01.231Z,23.40
2018-07-26T04:08:32.939Z,23.40
2018-07-26T04:09:04.666Z,23.40
2018-07-26T04:09:36.408Z,23.40
2018-07-26T04:10:08.153Z,23.40
2018-07-26T04:10:39.876Z,23.40
2018-07-26T04:11:11.697Z,23.40
2018-07-26T04:11:43.411Z,23.40
2018-07-26T04:12:15.150Z,23.40
2018-07-26T04:12:46.877Z,23.40
2018-07-26T04:13:18.607Z,23.40
2018-07-26T04:13:50.359Z,23.40
2018-07-26T04:14:22.109Z,23.40
2018-07-26T04:14:53.837Z,23.40
2018-07-26T04:15:25.592Z,23.30
2018-07-26T04:15:57.316Z,23.30
2018-07-26T04:16:29.250Z,23.30
2018-07-26T04:17:00.973Z,23.30
2018-07-26T04:17:32.699Z,23.30
2018-07-26T04:18:04.455Z,23.30
2018-07-26T04:18:36.179Z,23.30
2018-07-26T04:19:07.898Z,23.30
2018-07-26T04:19:39.631Z,23.40
2018-07-26T04:20:11.431Z,23.40
2018-07-26T04:20:43.282Z,23.40
2018-07-26T04:21:15.005Z,23.30
2018-07-26T04:21:46.757Z,23.40
2018-07-26T04:22:18.539Z,23.40
2018-07-26T04:22:50.265Z,23.40
2018-07-26T04:23:21.986Z,23.40
2018-07-26T04:23:53.749Z,23.40
2018-07-26T04:24:25.483Z,23.40
2018-07-26T04:24:57.402Z,23.40
2018-07-26T04:25:29.163Z,23.40
2018-07-26T04:26:00.915Z,23.40
2018-07-26T04:26:32.826Z,23.40
2018-07-26T04:27:04.585Z,23.40
2018-07-26T04:27:36.334Z,23.40
2018-07-26T04:28:08.061Z,23.40
2018-07-26T04:28:39.800Z,23.40
2018-07-26T04:29:11.523Z,23.40
2018-07-26T04:29:43.445Z,23.40
2018-07-26T04:30:15.177Z,23.40
2018-07-26T04:31:18.933Z,23.40
2018-07-26T04:31:50.687Z,23.40
2018-07-26T04:32:22.587Z,23.40
2018-07-26T04:32:54.370Z,23.40
2018-07-26T04:33:26.364Z,23.40
2018-07-26T04:33:58.075Z,23.40
2018-07-26T04:34:29.798Z,23.40
2018-07-26T04:35:01.539Z,23.40
2018-07-26T04:35:33.482Z,23.50
2018-07-26T04:36:05.214Z,23.50
2018-07-26T04:36:36.941Z,23.50
2018-07-26T04:37:08.678Z,23.50
2018-07-26T04:37:40.411Z,23.50
2018-07-26T04:38:12.159Z,23.50
2018-07-26T04:38:43.886Z,23.50
2018-07-26T04:39:15.635Z,23.50
2018-07-26T04:39:47.360Z,23.50
2018-07-26T04:40:19.087Z,23.50
2018-07-26T04:40:50.816Z,23.50
2018-07-26T04:41:22.529Z,23.50
2018-07-26T04:41:54.312Z,23.50
2018-07-26T04:42:26.043Z,23.60
2018-07-26T04:42:57.824Z,23.50
2018-07-26T04:43:29.707Z,23.60
2018-07-26T04:44:01.514Z,23.50
2018-07-26T04:44:33.274Z,23.50
2018-07-26T04:45:04.999Z,23.50
2018-07-26T04:45:36.732Z,23.50
2018-07-26T04:46:08.467Z,23.50
2018-07-26T04:46:40.207Z,23.50
2018-07-26T04:47:11.926Z,23.50
2018-07-26T04:47:43.655Z,23.50
2018-07-26T04:48:15.426Z,23.50
2018-07-26T04:48:47.190Z,23.50
2018-07-26T04:49:19.077Z,23.50
2018-07-26T04:49:50.810Z,23.50
2018-07-26T04:50:22.555Z,23.50
2018-07-26T04:50:54.289Z,23.50
2018-07-26T04:51:26.015Z,23.60
2018-07-26T04:51:57.745Z,23.60
2018-07-26T04:52:29.466Z,23.60
2018-07-26T04:53:01.196Z,23.60
2018-07-26T04:53:32.925Z,23.60
2018-07-26T04:54:04.664Z,23.60
2018-07-26T04:54:36.434Z,23.60
2018-07-26T04:55:08.368Z,23.60
2018-07-26T04:55:40.155Z,23.60
2018-07-26T04:56:11.871Z,23.60
2018-07-26T04:56:43.608Z,23.60
2018-07-26T04:57:15.505Z,23.60
2018-07-26T04:57:47.237Z,23.60
2018-07-26T04:58:18.974Z,23.60
2018-07-26T04:58:50.718Z,23.60
2018-07-26T04:59:22.449Z,23.60
2018-07-26T04:59:54.177Z,23.60
2018-07-26T05:00:25.927Z,23.60
2018-07-26T05:00:57.645Z,23.60
2018-07-26T05:01:29.386Z,23.60
2018-07-26T05:02:01.169Z,23.60
2018-07-26T05:02:32.924Z,23.70
2018-07-26T05:03:04.653Z,23.70
2018-07-26T05:03:36.380Z,23.60
2018-07-26T05:04:08.102Z,23.60
2018-07-26T05:04:39.868Z,23.70
2018-07-26T05:05:11.606Z,23.70
2018-07-26T05:05:43.340Z,23.60
2018-07-26T05:06:15.061Z,23.60
2018-07-26T05:06:46.796Z,23.70
2018-07-26T05:07:18.545Z,23.60
2018-07-26T05:07:50.283Z,23.60
2018-07-26T05:08:22.019Z,23.60
2018-07-26T05:08:53.749Z,23.60
2018-07-26T05:09:25.469Z,23.60
2018-07-26T05:09:57.391Z,23.60
2018-07-26T05:10:29.133Z,23.60
2018-07-26T05:11:00.876Z,23.60
2018-07-26T05:11:32.628Z,23.60
2018-07-26T05:12:04.360Z,23.60
2018-07-26T05:12:36.086Z,23.60
2018-07-26T05:13:07.845Z,23.60
2018-07-26T05:13:39.565Z,23.60
2018-07-26T05:14:11.305Z,23.60
2018-07-26T05:14:43.067Z,23.60
2018-07-26T05:15:14.794Z,23.60
2018-07-26T05:15:46.511Z,23.60
2018-07-26T05:16:18.273Z,23.60
2018-07-26T05:16:49.990Z,23.60
2018-07-26T05:17:21.713Z,23.60
2018-07-26T05:17:53.450Z,23.60
2018-07-26T05:18:25.248Z,23.60
2018-07-26T05:18:57.179Z,23.60
2018-07-26T05:19:29.106Z,23.60
2018-07-26T05:20:00.833Z,23.60
2018-07-26T05:20:32.622Z,23.60
2018-07-26T05:21:04.354Z,23.60
2018-07-26T05:21:36.070Z,23.60
2018-07-26T05:22:07.817Z,23.60
2018-07-26T05:22:39.542Z,23.60
2018-07-26T05:23:11.483Z,23.60
2018-07-26T05:23:43.220Z,23.60
2018-07-26T05:24:14.960Z,23.60
2018-07-26T05:24:46.677Z,23.60
2018-07-26T05:25:18.426Z,23.60
2018-07-26T05:25:50.333Z,23.60
2018-07-26T05:26:22.074Z,23.60
2018-07-26T05:26:53.812Z,23.60
2018-07-26T05:27:25.549Z,23.60
2018-07-26T05:27:57.294Z,23.70
2018-07-26T05:28:29.017Z,23.60
2018-07-26T05:29:00.748Z,23.60
2018-07-26T05:29:32.505Z,23.70
2018-07-26T05:30:04.211Z,23.60
2018-07-26T05:30:35.936Z,23.60
2018-07-26T05:31:07.665Z,23.60
2018-07-26T05:31:39.410Z,23.60
2018-07-26T05:32:11.134Z,23.60
2018-07-26T05:32:42.885Z,23.60
2018-07-26T05:33:14.610Z,23.60
2018-07-26T05:33:46.332Z,23.60
2018-07-26T05:34:18.116Z,23.60
2018-07-26T05:34:49.987Z,23.60
2018-07-26T05:35:21.724Z,23.60
2018-07-26T05:35:53.446Z,23.60
2018-07-26T05:36:25.166Z,23.60
2018-07-26T05:36:56.896Z,23.60
2018-07-26T05:37:28.675Z,23.60
2018-07-26T05:38:00.558Z,23.60
2018-07-26T05:38:32.285Z,23.60
2018-07-26T05:39:04.014Z,23.60
2018-07-26T05:39:35.780Z,23.60
2018-07-26T05:40:07.519Z,23.60
2018-07-26T05:40:39.244Z,23.70
2018-07-26T05:41:11.321Z,23.60
2018-07-26T05:41:43.052Z,23.60
2018-07-26T05:42:14.774Z,23.60
2018-07-26T05:42:46.497Z,23.60
2018-07-26T05:43:18.293Z,23.70
2018-07-26T05:43:50.166Z,23.60
2018-07-26T05:44:21.897Z,23.60
2018-07-26T05:44:53.632Z,23.70
2018-07-26T05:45:25.352Z,23.70
2018-07-26T05:45:57.077Z,23.70
2018-07-26T05:46:28.830Z,23.70
2018-07-26T05:47:00.551Z,23.70
2018-07-26T05:47:32.291Z,23.70
2018-07-26T05:48:04.017Z,23.70
2018-07-26T05:48:35.756Z,23.70
2018-07-26T05:49:07.476Z,23.70
2018-07-26T05:49:39.217Z,23.60
2018-07-26T05:50:11.022Z,23.60
2018-07-26T05:50:42.738Z,23.60
2018-07-26T05:51:14.473Z,23.70
2018-07-26T05:51:46.208Z,23.60
2018-07-26T05:52:17.930Z,23.60
2018-07-26T05:52:49.712Z,23.70
2018-07-26T05:53:21.489Z,23.60
2018-07-26T05:53:53.436Z,23.70
2018-07-26T05:54:25.161Z,23.70
2018-07-26T05:54:56.894Z,23.70
2018-07-26T05:55:28.637Z,23.70
2018-07-26T05:56:00.386Z,23.70
2018-07-26T05:56:32.125Z,23.70
2018-07-26T05:57:03.857Z,23.70
2018-07-26T05:57:35.589Z,23.70
2018-07-26T05:58:07.313Z,23.70
2018-07-26T05:58:39.037Z,23.70
2018-07-26T05:59:10.762Z,23.70
2018-07-26T05:59:42.479Z,23.70
2018-07-26T06:00:14.268Z,23.70
2018-07-26T06:00:46.133Z,23.70
2018-07-26T06:01:17.861Z,23.70
2018-07-26T06:01:49.578Z,23.70
2018-07-26T06:02:21.311Z,23.70
2018-07-26T06:02:53.039Z,23.70
2018-07-26T06:03:25.058Z,23.80
2018-07-26T06:03:56.767Z,23.80
2018-07-26T06:04:28.494Z,23.80
2018-07-26T06:05:00.223Z,23.80
2018-07-26T06:05:31.953Z,23.80
2018-07-26T06:06:03.678Z,23.80
2018-07-26T06:06:35.411Z,23.80
2018-07-26T06:07:07.165Z,23.80
2018-07-26T06:07:38.922Z,23.80
2018-07-26T06:08:10.657Z,23.80
2018-07-26T06:08:42.389Z,23.70
2018-07-26T06:09:14.124Z,23.80
2018-07-26T06:09:45.938Z,23.80
2018-07-26T06:10:17.786Z,23.80
2018-07-26T06:10:49.524Z,23.80
2018-07-26T06:11:21.253Z,23.80
2018-07-26T06:11:52.975Z,23.80
2018-07-26T06:12:24.703Z,23.80
2018-07-26T06:12:56.426Z,23.80
2018-07-26T06:13:28.160Z,23.80
2018-07-26T06:13:59.891Z,23.80
2018-07-26T06:14:31.622Z,23.80
2018-07-26T06:15:03.376Z,23.80
2018-07-26T06:15:35.107Z,23.80
2018-07-26T06:16:06.842Z,23.80
2018-07-26T06:16:38.583Z,23.80
2018-07-26T06:17:10.387Z,23.80
2018-07-26T06:17:42.246Z,23.80
2018-07-26T06:18:13.969Z,23.80
2018-07-26T06:18:45.699Z,23.80
2018-07-26T06:19:17.439Z,23.80
2018-07-26T06:19:49.161Z,23.80
2018-07-26T06:20:20.879Z,23.80
2018-07-26T06:20:52.604Z,23.80
2018-07-26T06:21:24.330Z,23.80
2018-07-26T06:21:56.063Z,23.80
2018-07-26T06:22:27.797Z,23.70
2018-07-26T06:22:59.538Z,23.80
2018-07-26T06:24:03.281Z,23.70
2018-07-26T06:24:35.002Z,23.80
2018-07-26T06:25:06.728Z,23.80
2018-07-26T06:25:38.472Z,23.70
2018-07-26T06:26:10.190Z,23.70
2018-07-26T06:26:41.924Z,23.70
2018-07-26T06:27:13.642Z,23.80
2018-07-26T06:27:45.417Z,23.70
2018-07-26T06:28:17.395Z,23.80
2018-07-26T06:28:49.234Z,23.70
2018-07-26T06:29:20.962Z,23.70
2018-07-26T06:29:52.685Z,23.80
2018-07-26T06:30:24.422Z,23.80
2018-07-26T06:30:56.149Z,23.80
2018-07-26T06:31:27.872Z,23.80
2018-07-26T06:31:59.655Z,23.80
2018-07-26T06:32:31.381Z,23.70
2018-07-26T06:33:03.122Z,23.80
2018-07-26T06:33:34.918Z,23.70
2018-07-26T06:34:06.789Z,23.80
2018-07-26T06:34:38.507Z,23.80
2018-07-26T06:35:10.231Z,23.80
2018-07-26T06:35:41.954Z,23.80
2018-07-26T06:36:13.695Z,23.80
2018-07-26T06:36:45.418Z,23.80
2018-07-26T06:37:17.150Z,23.80
2018-07-26T06:37:48.875Z,23.80
2018-07-26T06:38:20.593Z,23.80
2018-07-26T06:38:52.322Z,23.80
2018-07-26T06:39:24.079Z,23.80
2018-07-26T06:39:56.013Z,23.80
2018-07-26T06:40:27.733Z,23.80
2018-07-26T06:40:59.456Z,23.80
2018-07-26T06:41:31.202Z,23.80
2018-07-26T06:42:02.931Z,23.80
2018-07-26T06:42:34.654Z,23.80
2018-07-26T06:43:06.377Z,23.80
2018-07-26T06:43:38.099Z,23.80
2018-07-26T06:44:09.828Z,23.80
2018-07-26T06:44:41.561Z,23.80
2018-07-26T06:45:13.287Z,23.80
2018-07-26T06:45:45.012Z,23.80
2018-07-26T06:46:16.738Z,23.80
2018-07-26T06:46:48.465Z,23.80
2018-07-26T06:47:20.186Z,23.80
2018-07-26T06:47:51.912Z,23.80
2018-07-26T06:48:23.630Z,23.80
2018-07-26T06:48:55.353Z,23.80
2018-07-26T06:49:27.083Z,23.80
2018-07-26T06:49:58.906Z,23.80
2018-07-26T06:50:30.643Z,23.80
2018-07-26T06:51:02.369Z,23.80
2018-07-26T06:51:34.174Z,23.80
2018-07-26T06:52:05.865Z,23.90
2018-07-26T06:52:37.582Z,23.80
2018-07-26T06:53:09.333Z,23.80
2018-07-26T06:53:41.252Z,23.80
2018-07-26T06:54:12.978Z,23.80
2018-07-26T06:54:44.712Z,23.90
2018-07-26T06:55:16.483Z,23.80